createdAt,value
2022-10-02T00:02:23.153Z,39.25
2022-10-02T00:05:04.729Z,41.00
2022-10-02T00:07:45.656Z,37.55
2022-10-02T00:10:21.077Z,40.78
2022-10-02T00:12:52.978Z,40.73
2022-10-02T00:15:25.514Z,37.40
2022-10-02T00:17:57.617Z,37.75
2022-10-02T00:20:42.009Z,33.33
2022-10-02T00:23:14.578Z,32.38
2022-10-02T00:28:25.457Z,34.73
2022-10-02T00:31:09.791Z,34.55
2022-10-02T00:33:42.406Z,38.88
2022-10-02T00:36:20.357Z,37.00
2022-10-02T00:38:52.875Z,33.05
2022-10-02T00:41:25.291Z,32.33
2022-10-02T00:44:09.712Z,32.38
2022-10-02T00:46:42.186Z,37.20
2022-10-02T00:49:32.626Z,28.32
2022-10-02T00:52:34.758Z,34.53
2022-10-02T00:55:27.894Z,36.05
2022-10-02T00:58:15.220Z,32.33
2022-10-02T01:00:47.815Z,33.67
2022-10-02T01:03:25.090Z,32.67
2022-10-02T01:05:54.327Z,33.00
2022-10-02T01:08:23.634Z,33.73
2022-10-02T01:10:53.107Z,30.82
2022-10-02T01:13:22.428Z,34.88
2022-10-02T01:15:55.314Z,35.80
2022-10-02T01:18:24.735Z,33.13
2022-10-02T01:21:00.086Z,32.90
2022-10-02T01:23:47.281Z,35.73
2022-10-02T01:26:16.675Z,30.40
2022-10-02T01:28:46.023Z,38.08
2022-10-02T01:31:16.450Z,38.02
2022-10-02T01:33:47.994Z,34.83
2022-10-02T01:36:18.005Z,41.40
2022-10-02T01:38:47.951Z,34.67
2022-10-02T01:41:17.347Z,38.63
2022-10-02T01:43:58.405Z,42.30
2022-10-02T01:46:59.448Z,36.70
2022-10-02T01:49:58.537Z,31.10
2022-10-02T01:52:39.902Z,43.98
2022-10-02T01:55:36.309Z,32.78
2022-10-02T01:58:08.860Z,37.67
2022-10-02T02:03:29.407Z,37.85
2022-10-02T02:06:10.892Z,34.40
2022-10-02T02:08:52.540Z,39.92
2022-10-02T02:11:22.928Z,43.68
2022-10-02T02:14:04.833Z,50.52
2022-10-02T02:16:42.709Z,51.50
2022-10-02T02:19:23.051Z,45.85
2022-10-02T02:21:55.645Z,48.15
2022-10-02T02:27:15.065Z,38.98
2022-10-02T02:29:46.405Z,38.25
2022-10-02T02:32:18.587Z,42.62
2022-10-02T02:34:51.227Z,44.25
2022-10-02T02:40:01.738Z,56.18
2022-10-02T02:42:33.354Z,45.40
2022-10-02T02:45:12.172Z,47.35
2022-10-02T02:47:55.083Z,46.00
2022-10-02T02:50:30.660Z,55.70
2022-10-02T02:53:05.276Z,46.08
2022-10-02T02:55:39.290Z,50.40
2022-10-02T02:58:32.375Z,34.67
2022-10-02T03:01:02.094Z,36.13
2022-10-02T03:03:31.408Z,38.15
2022-10-02T03:06:05.755Z,30.52
2022-10-02T03:08:39.854Z,24.30
2022-10-02T03:11:24.605Z,31.45
2022-10-02T03:14:31.942Z,27.90
2022-10-02T03:17:13.211Z,30.57
2022-10-02T03:19:48.317Z,30.17
2022-10-02T03:22:42.913Z,26.73
2022-10-02T03:25:14.973Z,28.05
2022-10-02T03:27:56.369Z,27.25
2022-10-02T03:30:25.877Z,28.27
2022-10-02T03:32:56.349Z,27.42
2022-10-02T03:35:26.675Z,33.83
2022-10-02T03:37:59.352Z,27.73
2022-10-02T03:42:58.519Z,30.25
2022-10-02T03:45:50.106Z,27.70
2022-10-02T03:47:59.779Z,24.77
2022-10-02T03:50:31.758Z,22.13
2022-10-02T03:53:00.104Z,23.77
2022-10-02T03:55:35.796Z,25.23
2022-10-02T03:58:08.168Z,22.93
2022-10-02T04:00:46.469Z,19.50
2022-10-02T04:03:18.913Z,19.67
2022-10-02T04:05:51.379Z,25.10
2022-10-02T04:08:26.834Z,20.80
2022-10-02T04:11:02.290Z,19.85
2022-10-02T04:13:40.490Z,18.60
2022-10-02T04:16:34.791Z,22.07
2022-10-02T04:19:07.626Z,21.77
2022-10-02T04:22:00.610Z,20.60
2022-10-02T04:27:17.378Z,24.10
2022-10-02T04:29:52.641Z,26.15
2022-10-02T04:32:31.334Z,30.27
2022-10-02T04:35:02.960Z,25.68
2022-10-02T04:37:50.724Z,30.70
2022-10-02T04:40:41.076Z,34.53
2022-10-02T04:43:16.494Z,24.45
2022-10-02T04:46:14.794Z,34.30
2022-10-02T04:48:49.832Z,35.68
2022-10-02T04:51:39.008Z,35.13
2022-10-02T04:54:25.723Z,33.25
2022-10-02T04:57:07.253Z,29.37
2022-10-02T05:00:02.081Z,28.42
2022-10-02T05:02:52.919Z,35.48
2022-10-02T05:05:39.968Z,31.12
2022-10-02T05:08:21.563Z,36.85
2022-10-02T05:11:12.096Z,31.93
2022-10-02T05:14:10.712Z,40.20
2022-10-02T05:17:10.385Z,30.68
2022-10-02T05:19:51.910Z,39.73
2022-10-02T05:22:47.297Z,39.03
2022-10-02T05:25:45.608Z,35.78
2022-10-02T05:28:18.103Z,34.15
2022-10-02T05:30:53.463Z,34.65
2022-10-02T05:33:48.245Z,42.03
2022-10-02T05:36:38.623Z,44.83
2022-10-02T05:39:11.795Z,41.15
2022-10-02T05:41:47.062Z,35.75
2022-10-02T05:44:25.588Z,37.58
2022-10-02T05:47:04.265Z,39.73
2022-10-02T05:49:44.833Z,42.95
2022-10-02T05:52:43.151Z,44.15
2022-10-02T05:55:30.529Z,41.83
2022-10-02T05:58:14.476Z,42.65
2022-10-02T06:01:06.603Z,42.45
2022-10-02T06:03:49.098Z,39.70
2022-10-02T06:06:36.911Z,46.85
2022-10-02T06:09:26.883Z,40.15
2022-10-02T06:12:14.567Z,39.78
2022-10-02T06:14:53.275Z,41.40
2022-10-02T06:17:42.163Z,42.67
2022-10-02T06:20:20.619Z,38.38
2022-10-02T06:22:52.527Z,36.03
2022-10-02T06:25:25.095Z,43.78
2022-10-02T06:30:31.755Z,32.35
2022-10-02T06:33:04.326Z,37.90
2022-10-02T06:38:13.009Z,39.92
2022-10-02T06:40:57.467Z,36.68
2022-10-02T06:43:55.752Z,30.50
2022-10-02T06:46:30.880Z,26.20
2022-10-02T06:49:24.772Z,36.00
2022-10-02T06:52:15.105Z,32.45
2022-10-02T06:54:53.555Z,37.15
2022-10-02T06:57:26.301Z,32.78
2022-10-02T07:00:05.881Z,35.17
2022-10-02T07:02:46.841Z,25.05
2022-10-02T07:05:40.181Z,34.67
2022-10-02T07:08:24.548Z,21.70
2022-10-02T07:11:14.893Z,26.37
2022-10-02T07:14:12.277Z,30.40
2022-10-02T07:16:53.744Z,27.65
2022-10-02T07:19:34.797Z,28.38
2022-10-02T07:22:44.479Z,24.52
2022-10-02T07:25:10.479Z,28.10
2022-10-02T07:27:42.987Z,28.95
2022-10-02T07:30:17.450Z,28.45
2022-10-02T07:32:49.067Z,21.55
2022-10-02T07:35:42.095Z,26.05
2022-10-02T07:41:05.378Z,22.25
2022-10-02T07:43:54.271Z,25.90
2022-10-02T07:46:35.932Z,24.02
2022-10-02T07:49:11.462Z,29.10
2022-10-02T07:51:53.805Z,19.75
2022-10-02T07:54:32.000Z,25.43
2022-10-02T07:57:07.715Z,27.85
2022-10-02T07:59:36.723Z,24.77
2022-10-02T08:02:08.434Z,27.27
2022-10-02T08:04:39.312Z,22.90
2022-10-02T08:07:08.522Z,26.57
2022-10-02T08:09:49.688Z,25.35
2022-10-02T08:12:30.212Z,21.15
2022-10-02T08:15:02.126Z,21.85
2022-10-02T08:17:52.126Z,19.80
2022-10-02T08:20:39.781Z,21.60
2022-10-02T08:23:24.935Z,23.42
2022-10-02T08:26:03.161Z,21.40
2022-10-02T08:28:38.205Z,22.42
2022-10-02T08:31:11.174Z,19.32
2022-10-02T08:33:41.282Z,20.32
2022-10-02T08:36:16.934Z,24.50
2022-10-02T08:38:54.687Z,17.37
2022-10-02T08:41:46.516Z,20.50
2022-10-02T08:44:22.080Z,18.37
2022-10-02T08:47:07.391Z,15.32
2022-10-02T08:49:52.630Z,19.30
2022-10-02T08:52:28.326Z,19.77
2022-10-02T08:55:23.151Z,18.52
2022-10-02T08:58:12.877Z,18.55
2022-10-02T09:01:10.073Z,12.75
2022-10-02T09:04:09.209Z,18.48
2022-10-02T09:06:59.815Z,14.47
2022-10-02T09:10:07.105Z,16.60
2022-10-02T09:12:58.523Z,18.62
2022-10-02T09:15:40.022Z,20.05
2022-10-02T09:18:21.022Z,22.07
2022-10-02T09:21:26.863Z,19.32
2022-10-02T09:24:17.161Z,20.15
2022-10-02T09:27:22.658Z,17.02
2022-10-02T09:30:07.251Z,17.82
2022-10-02T09:32:45.768Z,24.85
2022-10-02T09:35:27.185Z,15.08
2022-10-02T09:38:11.347Z,15.40
2022-10-02T09:41:02.774Z,18.50
2022-10-02T09:43:43.781Z,17.48
2022-10-02T09:46:51.141Z,17.80
2022-10-02T09:49:35.295Z,17.30
2022-10-02T09:52:27.353Z,11.90
2022-10-02T09:55:15.026Z,16.65
2022-10-02T09:57:56.241Z,16.32
2022-10-02T10:00:34.455Z,14.95
2022-10-02T10:03:36.623Z,14.58
2022-10-02T10:06:26.714Z,15.53
2022-10-02T10:09:14.201Z,15.45
2022-10-02T10:12:01.919Z,16.00
2022-10-02T10:14:49.110Z,17.75
2022-10-02T10:17:24.280Z,33.35
2022-10-02T10:20:12.639Z,11.65
2022-10-02T10:23:03.651Z,17.55
2022-10-02T10:25:49.602Z,12.65
2022-10-02T10:28:28.283Z,12.40
2022-10-02T10:31:21.984Z,14.20
2022-10-02T10:34:11.369Z,13.10
2022-10-02T10:37:22.481Z,14.28
2022-10-02T10:40:03.281Z,16.80
2022-10-02T10:43:14.320Z,13.83
2022-10-02T10:45:38.310Z,13.13
2022-10-02T10:48:38.275Z,14.85
2022-10-02T10:51:30.476Z,17.85
2022-10-02T10:54:12.238Z,18.77
2022-10-02T10:56:59.512Z,13.30
2022-10-02T10:59:39.168Z,18.55
2022-10-02T11:02:17.308Z,16.45
2022-10-02T11:05:01.651Z,15.50
2022-10-02T11:07:39.561Z,15.85
2022-10-02T11:10:17.707Z,15.10
2022-10-02T11:13:07.312Z,13.40
2022-10-02T11:15:42.966Z,13.38
2022-10-02T11:18:18.007Z,12.90
2022-10-02T11:21:05.523Z,14.30
2022-10-02T11:23:43.668Z,17.10
2022-10-02T11:26:32.572Z,13.32
2022-10-02T11:29:16.757Z,15.10
2022-10-02T11:32:04.347Z,11.83
2022-10-02T11:34:53.125Z,13.98
2022-10-02T11:37:37.705Z,14.23
2022-10-02T11:40:37.115Z,10.58
2022-10-02T11:43:35.301Z,13.32
2022-10-02T11:46:33.317Z,12.90
2022-10-02T11:49:22.811Z,12.37
2022-10-02T11:52:11.622Z,14.63
2022-10-02T11:54:44.896Z,10.45
2022-10-02T11:57:30.261Z,13.85
2022-10-02T12:00:16.153Z,14.05
2022-10-02T12:02:51.163Z,11.88
2022-10-02T12:05:34.164Z,11.45
2022-10-02T12:08:18.304Z,14.50
2022-10-02T12:10:56.599Z,14.38
2022-10-02T12:13:47.256Z,12.28
2022-10-02T12:16:31.830Z,12.33
2022-10-02T12:19:08.200Z,12.25
2022-10-02T12:22:01.880Z,9.85
2022-10-02T12:25:09.253Z,15.30
2022-10-02T12:27:57.597Z,11.33
2022-10-02T12:30:33.062Z,10.18
2022-10-02T12:33:27.377Z,11.78
2022-10-02T12:36:19.114Z,13.62
2022-10-02T12:39:00.401Z,8.93
2022-10-02T12:42:06.323Z,8.95
2022-10-02T12:44:57.074Z,11.63
2022-10-02T12:47:32.115Z,12.78
2022-10-02T12:50:05.480Z,9.35
2022-10-02T12:52:44.135Z,31.15
2022-10-02T12:58:45.314Z,17.05
2022-10-02T13:01:31.285Z,13.70
2022-10-02T13:04:21.853Z,13.00
2022-10-02T13:07:20.669Z,11.57
2022-10-02T13:10:19.392Z,12.43
2022-10-02T13:12:54.559Z,13.35
2022-10-02T13:15:34.084Z,9.78
2022-10-02T13:18:09.148Z,8.90
2022-10-02T13:20:54.156Z,9.80
2022-10-02T13:23:41.037Z,10.30
2022-10-02T13:26:32.001Z,12.65
2022-10-02T13:29:07.157Z,12.25
2022-10-02T13:31:45.475Z,11.93
2022-10-02T13:34:36.406Z,9.53
2022-10-02T13:37:15.738Z,14.68
2022-10-02T13:40:07.010Z,10.72
2022-10-02T13:42:45.453Z,10.78
2022-10-02T13:45:21.436Z,11.25
2022-10-02T13:48:03.638Z,8.88
2022-10-02T13:51:04.975Z,8.95
2022-10-02T13:53:46.151Z,10.43
2022-10-02T13:56:38.322Z,9.28
2022-10-02T13:59:27.431Z,9.25
2022-10-02T14:02:15.282Z,8.58
2022-10-02T14:05:02.623Z,9.78
2022-10-02T14:07:53.192Z,9.00
2022-10-02T14:10:35.075Z,10.95
2022-10-02T14:13:26.098Z,10.10
2022-10-02T14:16:02.600Z,11.88
2022-10-02T14:18:44.164Z,8.88
2022-10-02T14:21:22.284Z,9.23
2022-10-02T14:24:09.626Z,13.62
2022-10-02T14:26:45.440Z,12.05
2022-10-02T14:29:45.146Z,11.25
2022-10-02T14:32:23.502Z,11.08
2022-10-02T14:35:29.632Z,11.30
2022-10-02T14:38:04.954Z,9.48
2022-10-02T14:40:46.095Z,6.92
2022-10-02T14:43:36.569Z,7.83
2022-10-02T14:46:28.821Z,8.60
2022-10-02T14:49:13.346Z,8.18
2022-10-02T14:52:01.504Z,11.85
2022-10-02T14:54:49.007Z,8.10
2022-10-02T14:57:21.540Z,12.23
2022-10-02T15:00:18.242Z,12.28
2022-10-02T15:03:10.421Z,11.18
2022-10-02T15:06:10.727Z,8.80
2022-10-02T15:08:46.459Z,12.30
2022-10-02T15:11:28.108Z,8.55
2022-10-02T15:14:00.839Z,10.20
2022-10-02T15:17:09.068Z,7.67
2022-10-02T15:19:50.015Z,8.45
2022-10-02T15:22:22.628Z,12.58
2022-10-02T15:24:59.154Z,6.92
2022-10-02T15:27:34.779Z,10.28
2022-10-02T15:30:16.334Z,8.00
2022-10-02T15:32:51.432Z,12.33
2022-10-02T15:35:39.282Z,9.93
2022-10-02T15:38:20.547Z,10.18
2022-10-02T15:41:19.230Z,14.15
2022-10-02T15:43:57.237Z,11.85
2022-10-02T15:46:32.607Z,11.45
2022-10-02T15:49:21.730Z,10.32
2022-10-02T15:52:20.934Z,15.18
2022-10-02T15:55:08.130Z,11.43
2022-10-02T15:57:55.888Z,12.37
2022-10-02T16:00:27.273Z,14.25
2022-10-02T16:03:00.252Z,11.73
2022-10-02T16:05:51.013Z,10.32
2022-10-02T16:08:23.700Z,14.05
2022-10-02T16:11:01.988Z,16.85
2022-10-02T16:13:53.931Z,15.08
2022-10-02T16:16:47.629Z,16.95
2022-10-02T16:19:38.249Z,14.03
2022-10-02T16:22:18.101Z,14.47
2022-10-02T16:25:17.850Z,12.98
2022-10-02T16:28:02.135Z,11.57
2022-10-02T16:30:34.657Z,18.25
2022-10-02T16:33:21.049Z,16.97
2022-10-02T16:36:05.011Z,15.68
2022-10-02T16:38:53.049Z,27.82
2022-10-02T16:41:40.478Z,16.57
2022-10-02T16:44:32.477Z,12.07
2022-10-02T16:47:12.025Z,18.98
2022-10-02T16:50:05.476Z,16.35
2022-10-02T16:52:40.822Z,16.00
2022-10-02T16:55:19.863Z,14.55
2022-10-02T16:57:52.330Z,17.02
2022-10-02T17:00:28.000Z,15.15
2022-10-02T17:03:15.377Z,15.00
2022-10-02T17:05:47.968Z,16.73
2022-10-02T17:11:04.023Z,13.35
2022-10-02T17:13:39.037Z,19.73
2022-10-02T17:16:21.133Z,13.58
2022-10-02T17:18:59.445Z,11.73
2022-10-02T17:21:52.974Z,16.32
2022-10-02T17:24:25.346Z,15.93
2022-10-02T17:27:31.268Z,17.17
2022-10-02T17:30:22.907Z,18.67
2022-10-02T17:33:13.205Z,14.80
2022-10-02T17:35:54.660Z,14.83
2022-10-02T17:38:27.224Z,17.52
2022-10-02T17:43:52.376Z,17.32
2022-10-02T17:46:24.754Z,17.07
2022-10-02T17:49:26.183Z,22.07
2022-10-02T17:52:34.351Z,14.20
2022-10-02T17:55:55.510Z,14.80
2022-10-02T17:58:35.522Z,16.40
2022-10-02T18:01:23.444Z,12.25
2022-10-02T18:04:14.293Z,15.58
2022-10-02T18:06:58.755Z,15.35
2022-10-02T18:09:46.456Z,16.55
2022-10-02T18:12:45.994Z,17.60
2022-10-02T18:15:33.340Z,14.83
2022-10-02T18:18:21.315Z,20.48
2022-10-02T18:21:27.022Z,16.12
2022-10-02T18:24:08.040Z,11.97
2022-10-02T18:26:58.691Z,13.08
2022-10-02T18:29:40.237Z,14.78
2022-10-02T18:32:26.409Z,14.43
2022-10-02T18:34:58.930Z,16.97
2022-10-02T18:37:40.305Z,22.77
2022-10-02T18:40:33.378Z,14.07
2022-10-02T18:45:40.936Z,16.80
2022-10-02T18:48:31.405Z,14.25
2022-10-02T18:51:09.967Z,15.45
2022-10-02T18:53:48.442Z,25.35
2022-10-02T18:56:21.256Z,15.25
2022-10-02T18:59:12.990Z,19.73
2022-10-02T19:01:45.648Z,23.57
2022-10-02T19:04:24.424Z,24.32
2022-10-02T19:07:05.736Z,21.70
2022-10-02T19:09:35.438Z,28.50
2022-10-02T19:12:18.546Z,21.80
2022-10-02T19:14:47.940Z,20.08
2022-10-02T19:17:25.968Z,17.10
2022-10-02T19:19:56.181Z,18.12
2022-10-02T19:22:35.214Z,11.35
2022-10-02T19:25:15.488Z,13.58
2022-10-02T19:27:49.370Z,15.85
2022-10-02T19:30:27.186Z,15.45
2022-10-02T19:33:04.504Z,20.37
2022-10-02T19:35:36.527Z,21.75
2022-10-02T19:38:12.608Z,16.10
2022-10-02T19:40:42.788Z,20.30
2022-10-02T19:43:24.729Z,17.75
2022-10-02T19:45:57.244Z,26.90
2022-10-02T19:50:59.352Z,20.37
2022-10-02T19:56:16.803Z,20.68
2022-10-02T19:58:54.868Z,24.45
2022-10-02T20:01:27.388Z,23.77
2022-10-02T20:04:00.041Z,35.30
2022-10-02T20:06:32.050Z,24.47
2022-10-02T20:09:23.156Z,25.90
2022-10-02T20:12:08.257Z,25.02
2022-10-02T20:14:49.332Z,27.25
2022-10-02T20:17:19.301Z,19.90
2022-10-02T20:19:58.062Z,20.37
2022-10-02T20:22:48.693Z,17.00
2022-10-02T20:25:21.326Z,18.15
2022-10-02T20:30:23.709Z,20.80
2022-10-02T20:33:07.719Z,20.75
2022-10-02T20:35:45.896Z,18.05
2022-10-02T20:38:33.297Z,25.82
2022-10-02T20:41:05.798Z,18.02
2022-10-02T20:43:44.901Z,21.02
2022-10-02T20:46:23.825Z,19.60
2022-10-02T20:49:09.340Z,16.12
2022-10-02T20:52:06.487Z,16.87
2022-10-02T20:55:03.098Z,17.12
2022-10-02T20:58:00.726Z,15.10
2022-10-02T21:00:22.945Z,15.00
2022-10-02T21:03:10.342Z,18.77
2022-10-02T21:05:45.507Z,17.82
2022-10-02T21:08:21.108Z,20.25
2022-10-02T21:11:14.155Z,13.45
2022-10-02T21:16:41.688Z,18.55
2022-10-02T21:19:45.190Z,21.02
2022-10-02T21:22:17.866Z,21.70
2022-10-02T21:27:21.789Z,19.00
2022-10-02T21:30:02.787Z,21.52
2022-10-02T21:32:41.100Z,17.27
2022-10-02T21:35:19.348Z,15.30
2022-10-02T21:38:12.745Z,20.25
2022-10-02T21:40:48.349Z,20.12
2022-10-02T21:43:51.061Z,20.45
2022-10-02T21:46:32.375Z,20.12
2022-10-02T21:49:07.790Z,17.90
2022-10-02T21:51:48.454Z,17.92
2022-10-02T21:54:21.025Z,18.32
2022-10-02T21:59:39.894Z,17.62
2022-10-02T22:05:08.905Z,17.42
2022-10-02T22:08:01.783Z,21.95
2022-10-02T22:10:37.067Z,17.90
2022-10-02T22:13:27.673Z,18.23
2022-10-02T22:16:24.793Z,19.73
2022-10-02T22:19:00.250Z,20.85
2022-10-02T22:21:47.253Z,20.45
2022-10-02T22:24:22.497Z,22.65
2022-10-02T22:27:11.976Z,17.52
2022-10-02T22:29:52.849Z,23.70
2022-10-02T22:32:43.229Z,15.08
2022-10-02T22:35:21.698Z,17.02
2022-10-02T22:38:04.776Z,23.77
2022-10-02T22:40:43.391Z,18.48
2022-10-02T22:43:19.333Z,17.30
2022-10-02T22:45:51.922Z,26.70
2022-10-02T22:48:31.180Z,22.27
2022-10-02T22:51:06.284Z,17.62
2022-10-02T22:53:38.685Z,20.95
2022-10-02T22:56:19.938Z,18.27
2022-10-02T22:59:07.245Z,21.62
2022-10-02T23:01:39.931Z,16.82
2022-10-02T23:04:33.655Z,20.05
2022-10-02T23:07:16.349Z,17.40
2022-10-02T23:09:49.397Z,22.00
2022-10-02T23:12:25.457Z,21.75
2022-10-02T23:15:07.871Z,22.40
2022-10-02T23:18:07.106Z,18.98
2022-10-02T23:20:49.156Z,23.35
2022-10-02T23:23:29.985Z,24.30
2022-10-02T23:26:17.404Z,19.25
2022-10-02T23:29:14.410Z,22.70
2022-10-02T23:31:46.779Z,18.48
2022-10-02T23:34:37.672Z,22.25
2022-10-02T23:37:13.720Z,18.60
2022-10-02T23:39:52.016Z,15.48
2022-10-02T23:42:26.140Z,19.62
2022-10-02T23:44:58.210Z,13.78
2022-10-02T23:47:45.222Z,15.65
2022-10-02T23:50:29.492Z,21.35
2022-10-02T23:53:18.793Z,19.37
2022-10-02T23:55:57.223Z,21.48
2022-10-02T23:58:44.237Z,27.67
